Time;durP1;ratioP1;P1;durP2;ratioP2;P2;SDS_P1;SDS_P2;PMS_P1;PMS_P2;Temp;Humidity;BMP_temperature;BMP_pressure;BME280_temperature;BME280_humidity;BME280_pressure;Samples;Min_cycle;Max_cycle;Signal;HPM_P1;HPM_P2
2023/05/31 00:01:13;;;;;;;3.22;2.90;;;;;;;;;;5050821;28;20111;-64
2023/05/31 00:03:42;;;;;;;3.63;2.78;;;;;;;;;;5051184;28;20451;-64
2023/05/31 00:06:10;;;;;;;3.13;2.50;;;;;;;;;;5051142;28;20455;-65
2023/05/31 00:08:37;;;;;;;4.00;3.22;;;;;;;;;;5051006;28;20459;-65
2023/05/31 00:11:03;;;;;;;3.17;2.83;;;;;;;;;;5053324;28;20550;-65
2023/05/31 00:13:29;;;;;;;4.20;3.03;;;;;;;;;;5053911;28;20103;-64
2023/05/31 00:15:56;;;;;;;5.32;3.10;;;;;;;;;;5041616;28;20106;-64
2023/05/31 00:18:22;;;;;;;2.50;2.30;;;;;;;;;;5054744;28;20052;-65
2023/05/31 00:20:49;;;;;;;2.63;2.42;;;;;;;;;;5040511;28;20053;-64
2023/05/31 00:23:16;;;;;;;2.73;2.27;;;;;;;;;;5054549;28;20049;-65
2023/05/31 00:25:42;;;;;;;3.17;2.45;;;;;;;;;;5054329;28;20333;-64
2023/05/31 00:28:09;;;;;;;2.85;2.10;;;;;;;;;;5054628;28;20114;-64
2023/05/31 00:30:36;;;;;;;2.78;2.50;;;;;;;;;;5054355;28;20115;-65
2023/05/31 00:33:02;;;;;;;2.45;2.13;;;;;;;;;;5054450;28;20040;-64
2023/05/31 00:35:29;;;;;;;3.08;2.38;;;;;;;;;;5054577;28;20056;-64
2023/05/31 00:37:55;;;;;;;2.47;2.28;;;;;;;;;;5054162;28;20056;-64
2023/05/31 00:40:22;;;;;;;2.67;2.25;;;;;;;;;;5054473;28;20060;-64
2023/05/31 00:42:48;;;;;;;1.88;1.77;;;;;;;;;;5054162;28;20080;-64
2023/05/31 00:45:15;;;;;;;2.65;2.13;;;;;;;;;;5054281;28;20103;-65
2023/05/31 00:47:41;;;;;;;2.75;1.95;;;;;;;;;;5053929;28;20071;-64
2023/05/31 00:50:08;;;;;;;1.80;1.70;;;;;;;;;;5054269;28;20073;-65
2023/05/31 00:52:34;;;;;;;2.03;1.83;;;;;;;;;;5054219;28;20102;-64
2023/05/31 00:55:02;;;;;;;1.73;1.63;;;;;;;;;;5053952;28;20057;-65
2023/05/31 00:57:28;;;;;;;2.10;1.90;;;;;;;;;;5053865;28;20106;-65
2023/05/31 00:59:55;;;;;;;2.10;1.53;;;;;;;;;;5053752;28;20130;-65
2023/05/31 01:02:22;;;;;;;1.63;1.20;;;;;;;;;;5054073;28;20122;-65
2023/05/31 01:04:49;;;;;;;1.02;0.90;;;;;;;;;;5053830;28;20128;-65
2023/05/31 01:07:15;;;;;;;0.82;0.82;;;;;;;;;;5053828;28;20052;-65
2023/05/31 01:09:42;;;;;;;0.55;0.55;;;;;;;;;;5053599;28;20132;-65
2023/05/31 01:12:28;;;;;;;1.40;0.88;;;;;;;;;;5053529;28;20041;-64
2023/05/31 01:15:11;;;;;;;0.50;0.50;;;;;;;;;;5053829;28;20045;-64
2023/05/31 01:17:50;;;;;;;0.70;0.60;;;;;;;;;;5053853;28;20059;-64
2023/05/31 01:20:19;;;;;;;0.68;0.68;;;;;;;;;;5053334;28;20079;-65
2023/05/31 01:22:47;;;;;;;1.95;0.80;;;;;;;;;;5053399;28;20535;-65
2023/05/31 01:25:14;;;;;;;0.52;0.52;;;;;;;;;;5053276;28;20049;-65
2023/05/31 01:27:41;;;;;;;0.70;0.67;;;;;;;;;;5053273;28;20041;-64
2023/05/31 01:30:09;;;;;;;0.63;0.50;;;;;;;;;;5052008;28;20335;-64
2023/05/31 01:32:35;;;;;;;0.60;0.60;;;;;;;;;;5053307;28;20110;-64
2023/05/31 01:35:02;;;;;;;0.90;0.60;;;;;;;;;;5053156;28;20056;-64
2023/05/31 01:37:29;;;;;;;0.87;0.77;;;;;;;;;;5053381;28;20052;-65
2023/05/31 01:39:55;;;;;;;0.52;0.52;;;;;;;;;;5052984;28;20439;-64
2023/05/31 01:42:23;;;;;;;0.63;0.60;;;;;;;;;;5053008;28;20053;-64
2023/05/31 01:44:50;;;;;;;1.50;0.70;;;;;;;;;;5052907;28;20508;-64
2023/05/31 01:47:17;;;;;;;1.50;0.88;;;;;;;;;;5052921;28;20053;-65
2023/05/31 01:49:43;;;;;;;0.90;0.70;;;;;;;;;;5052797;28;20045;-65
2023/05/31 01:52:12;;;;;;;0.68;0.68;;;;;;;;;;5052894;28;20094;-64
2023/05/31 01:54:38;;;;;;;0.73;0.73;;;;;;;;;;5053034;28;20045;-65
2023/05/31 01:57:06;;;;;;;1.25;0.90;;;;;;;;;;5052650;28;20088;-65
2023/05/31 01:59:33;;;;;;;0.85;0.85;;;;;;;;;;5052735;28;20136;-64
2023/05/31 02:02:00;;;;;;;1.15;1.00;;;;;;;;;;5045932;28;20048;-64
2023/05/31 02:04:26;;;;;;;1.58;1.08;;;;;;;;;;5052627;28;20554;-64
2023/05/31 02:06:53;;;;;;;1.00;1.00;;;;;;;;;;5052380;28;20107;-65
2023/05/31 02:09:22;;;;;;;1.02;0.93;;;;;;;;;;5052750;28;20443;-64
2023/05/31 02:11:49;;;;;;;1.25;0.88;;;;;;;;;;5052377;28;20045;-64
2023/05/31 02:14:15;;;;;;;1.00;0.82;;;;;;;;;;5052392;28;20045;-65
2023/05/31 02:16:42;;;;;;;1.02;0.93;;;;;;;;;;5052293;28;20044;-65
2023/05/31 02:19:08;;;;;;;1.23;0.90;;;;;;;;;;5052274;28;20053;-65
2023/05/31 02:21:38;;;;;;;0.88;0.88;;;;;;;;;;5052193;28;20575;-65
2023/05/31 02:24:04;;;;;;;1.27;0.80;;;;;;;;;;5052222;28;20562;-65
2023/05/31 02:26:31;;;;;;;2.03;0.90;;;;;;;;;;5052179;28;20049;-64
2023/05/31 02:28:57;;;;;;;0.75;0.75;;;;;;;;;;5052447;28;20049;-64
2023/05/31 02:31:23;;;;;;;1.05;0.95;;;;;;;;;;5052039;28;20052;-65
2023/05/31 02:33:50;;;;;;;1.58;0.80;;;;;;;;;;5051678;28;20099;-65
2023/05/31 02:36:16;;;;;;;0.50;0.50;;;;;;;;;;5052223;28;20449;-65
2023/05/31 02:38:43;;;;;;;0.60;0.60;;;;;;;;;;5052209;28;20049;-65
2023/05/31 02:41:10;;;;;;;1.02;0.70;;;;;;;;;;5052302;28;20404;-65
2023/05/31 02:43:36;;;;;;;1.20;0.70;;;;;;;;;;5052141;28;20049;-65
2023/05/31 02:46:03;;;;;;;1.55;0.63;;;;;;;;;;5051716;28;20127;-65
2023/05/31 02:48:29;;;;;;;1.58;0.75;;;;;;;;;;5051917;28;20049;-64
2023/05/31 02:50:56;;;;;;;2.15;0.80;;;;;;;;;;5052077;28;20516;-64
2023/05/31 02:53:22;;;;;;;0.93;0.82;;;;;;;;;;5051912;28;20088;-65
2023/05/31 02:55:49;;;;;;;3.95;1.02;;;;;;;;;;5051914;28;20048;-64
2023/05/31 02:58:15;;;;;;;1.63;0.88;;;;;;;;;;5051933;28;20052;-64
2023/05/31 03:00:42;;;;;;;3.13;0.82;;;;;;;;;;5051428;28;20053;-64
2023/05/31 03:03:10;;;;;;;2.97;0.80;;;;;;;;;;5051635;28;20048;-64
2023/05/31 03:05:38;;;;;;;2.38;0.63;;;;;;;;;;5051662;28;20124;-65
2023/05/31 03:08:04;;;;;;;0.98;0.60;;;;;;;;;;5051909;28;20041;-64
2023/05/31 03:10:31;;;;;;;0.50;0.50;;;;;;;;;;5051786;28;20045;-64
2023/05/31 03:12:57;;;;;;;3.10;0.80;;;;;;;;;;5051459;28;20045;-64
2023/05/31 03:15:24;;;;;;;0.60;0.40;;;;;;;;;;5051530;28;20506;-64
2023/05/31 03:17:50;;;;;;;0.95;0.50;;;;;;;;;;5051398;28;20491;-64
2023/05/31 03:20:17;;;;;;;0.47;0.45;;;;;;;;;;5051757;28;20041;-65
2023/05/31 03:22:43;;;;;;;0.50;0.50;;;;;;;;;;5051506;28;20552;-64
2023/05/31 03:25:10;;;;;;;0.60;0.50;;;;;;;;;;5051456;28;20051;-64
2023/05/31 03:27:36;;;;;;;1.30;0.50;;;;;;;;;;5051571;28;20081;-65
2023/05/31 03:30:04;;;;;;;0.60;0.50;;;;;;;;;;5051598;28;20129;-64
2023/05/31 03:32:30;;;;;;;0.40;0.40;;;;;;;;;;5051400;28;20091;-64
2023/05/31 03:34:57;;;;;;;0.85;0.60;;;;;;;;;;5051435;28;20100;-64
2023/05/31 03:37:23;;;;;;;1.00;0.50;;;;;;;;;;5051335;28;20091;-64
2023/05/31 03:39:50;;;;;;;1.15;0.60;;;;;;;;;;5051253;28;20389;-64
2023/05/31 03:42:16;;;;;;;1.73;0.90;;;;;;;;;;5051293;28;20128;-65
2023/05/31 03:44:43;;;;;;;1.63;0.80;;;;;;;;;;5053296;28;20056;-65
2023/05/31 03:47:11;;;;;;;1.52;0.60;;;;;;;;;;5055344;28;20118;-64
2023/05/31 03:49:37;;;;;;;0.55;0.55;;;;;;;;;;5055269;28;20045;-65
2023/05/31 03:52:04;;;;;;;0.70;0.70;;;;;;;;;;5055169;28;20484;-64
2023/05/31 03:54:30;;;;;;;0.83;0.60;;;;;;;;;;5055309;28;20087;-65
2023/05/31 03:56:57;;;;;;;0.40;0.40;;;;;;;;;;5054996;28;20084;-64
2023/05/31 03:59:23;;;;;;;1.13;0.55;;;;;;;;;;5055156;28;20048;-64
2023/05/31 04:01:50;;;;;;;0.98;0.60;;;;;;;;;;5054964;28;20132;-64
2023/05/31 04:04:16;;;;;;;0.65;0.50;;;;;;;;;;5047073;28;20060;-65
2023/05/31 04:06:43;;;;;;;1.25;0.57;;;;;;;;;;5048715;28;20045;-64
2023/05/31 04:09:10;;;;;;;0.73;0.60;;;;;;;;;;5054977;28;20055;-65
2023/05/31 04:11:36;;;;;;;0.68;0.57;;;;;;;;;;5054685;28;20041;-64
2023/05/31 04:14:03;;;;;;;1.98;0.70;;;;;;;;;;5054912;28;20049;-64
2023/05/31 04:16:29;;;;;;;0.82;0.60;;;;;;;;;;5054810;28;20143;-65
2023/05/31 04:18:56;;;;;;;0.68;0.55;;;;;;;;;;5054645;28;20052;-64
2023/05/31 04:21:23;;;;;;;0.40;0.40;;;;;;;;;;5054585;28;20057;-64
2023/05/31 04:23:49;;;;;;;0.98;0.50;;;;;;;;;;5054442;28;20049;-65
2023/05/31 04:26:18;;;;;;;0.50;0.40;;;;;;;;;;5054367;28;20499;-65
2023/05/31 04:28:53;;;;;;;0.40;0.40;;;;;;;;;;5053180;28;20037;-64
2023/05/31 04:31:24;;;;;;;1.20;0.40;;;;;;;;;;5054421;28;20041;-64
2023/05/31 04:34:04;;;;;;;0.93;0.35;;;;;;;;;;5054406;28;20389;-64
2023/05/31 04:36:36;;;;;;;0.35;0.30;;;;;;;;;;5054441;28;20076;-65
2023/05/31 04:39:03;;;;;;;0.60;0.40;;;;;;;;;;5054300;28;20053;-64
2023/05/31 04:41:29;;;;;;;0.65;0.30;;;;;;;;;;5054444;28;20059;-64
2023/05/31 04:43:56;;;;;;;1.20;0.30;;;;;;;;;;5054463;28;20051;-65
2023/05/31 04:46:24;;;;;;;0.43;0.30;;;;;;;;;;5054053;28;20099;-64
2023/05/31 04:48:51;;;;;;;;;;;;;;;;;;5054367;28;20496;-64
2023/05/31 04:51:18;;;;;;;;;;;;;;;;;;5041716;28;19928;-64
2023/05/31 04:53:45;;;;;;;0.20;0.20;;;;;;;;;;5052974;28;20272;-64
2023/05/31 04:56:12;;;;;;;0.68;0.20;;;;;;;;;;5053295;28;20059;-64
2023/05/31 04:58:39;;;;;;;2.00;0.10;;;;;;;;;;5054127;28;20049;-64
2023/05/31 05:01:06;;;;;;;0.30;0.30;;;;;;;;;;5053590;28;20298;-64
2023/05/31 05:03:33;;;;;;;1.25;0.25;;;;;;;;;;5053702;28;20816;-64
2023/05/31 05:06:12;;;;;;;0.63;0.43;;;;;;;;;;5053924;28;20133;-64
2023/05/31 05:08:39;;;;;;;2.67;0.50;;;;;;;;;;5052695;28;20120;-64
2023/05/31 05:11:06;;;;;;;0.43;0.43;;;;;;;;;;5053720;28;20041;-64
2023/05/31 05:13:32;;;;;;;0.75;0.50;;;;;;;;;;5053514;28;20060;-64
2023/05/31 05:15:59;;;;;;;0.85;0.55;;;;;;;;;;5053497;28;20041;-64
2023/05/31 05:18:26;;;;;;;1.25;0.55;;;;;;;;;;5053471;28;20048;-64
2023/05/31 05:20:52;;;;;;;0.85;0.63;;;;;;;;;;5053517;28;20420;-64
2023/05/31 05:23:19;;;;;;;0.80;0.52;;;;;;;;;;5047032;28;20057;-64
2023/05/31 05:25:45;;;;;;;0.60;0.60;;;;;;;;;;5046024;28;20519;-64
2023/05/31 05:28:12;;;;;;;1.02;0.55;;;;;;;;;;5053067;28;20099;-64
2023/05/31 05:30:38;;;;;;;0.57;0.50;;;;;;;;;;5053473;28;20102;-64
2023/05/31 05:33:05;;;;;;;1.20;0.70;;;;;;;;;;5053442;28;20118;-64
2023/05/31 05:35:32;;;;;;;0.57;0.57;;;;;;;;;;5053242;28;20049;-64
2023/05/31 05:37:59;;;;;;;0.70;0.70;;;;;;;;;;5053107;28;20052;-64
2023/05/31 05:40:26;;;;;;;0.80;0.80;;;;;;;;;;5053118;28;20049;-64
2023/05/31 05:42:53;;;;;;;1.35;0.90;;;;;;;;;;5053466;28;20428;-64
2023/05/31 05:45:20;;;;;;;1.75;0.63;;;;;;;;;;5053328;28;20532;-64
2023/05/31 05:47:48;;;;;;;1.17;1.05;;;;;;;;;;5053088;28;20049;-65
2023/05/31 05:50:15;;;;;;;0.52;0.52;;;;;;;;;;5052949;28;20063;-65
2023/05/31 05:52:42;;;;;;;1.35;0.80;;;;;;;;;;5052841;28;20056;-64
2023/05/31 05:55:08;;;;;;;0.70;0.70;;;;;;;;;;5053048;28;20053;-64
2023/05/31 05:57:35;;;;;;;0.98;0.70;;;;;;;;;;5052667;28;20580;-65
2023/05/31 06:00:09;;;;;;;0.55;0.52;;;;;;;;;;5052443;28;20721;-64
2023/05/31 06:02:36;;;;;;;0.95;0.60;;;;;;;;;;5052966;28;20048;-65
2023/05/31 06:05:03;;;;;;;0.57;0.50;;;;;;;;;;5052745;28;20061;-64
2023/05/31 06:07:29;;;;;;;0.93;0.50;;;;;;;;;;5052674;28;20045;-65
2023/05/31 06:09:56;;;;;;;0.53;0.53;;;;;;;;;;5052448;28;20091;-65
2023/05/31 06:12:22;;;;;;;1.27;0.70;;;;;;;;;;5052724;28;20056;-64
2023/05/31 06:14:49;;;;;;;1.13;0.52;;;;;;;;;;5052625;28;20052;-64
2023/05/31 06:17:15;;;;;;;0.87;0.50;;;;;;;;;;5052592;28;20045;-64
2023/05/31 06:19:42;;;;;;;0.40;0.40;;;;;;;;;;5052301;28;20051;-64
2023/05/31 06:22:08;;;;;;;2.65;0.60;;;;;;;;;;5052361;28;20052;-65
2023/05/31 06:24:35;;;;;;;0.45;0.45;;;;;;;;;;5052375;28;20056;-64
2023/05/31 06:27:02;;;;;;;0.70;0.70;;;;;;;;;;5052461;28;20045;-64
2023/05/31 06:29:29;;;;;;;0.55;0.50;;;;;;;;;;5052382;28;20064;-65
2023/05/31 06:31:56;;;;;;;0.40;0.40;;;;;;;;;;5052375;28;20049;-65
2023/05/31 06:34:22;;;;;;;0.50;0.50;;;;;;;;;;5052087;28;20048;-64
2023/05/31 06:36:49;;;;;;;0.38;0.38;;;;;;;;;;5051906;28;20777;-64
2023/05/31 06:39:15;;;;;;;0.40;0.40;;;;;;;;;;5048533;28;20072;-65
2023/05/31 06:41:42;;;;;;;1.00;0.40;;;;;;;;;;5043662;28;20053;-65
2023/05/31 06:44:08;;;;;;;1.35;0.50;;;;;;;;;;5032151;28;20060;-65
2023/05/31 06:46:35;;;;;;;1.13;0.32;;;;;;;;;;5031866;28;20064;-65
2023/05/31 06:49:01;;;;;;;0.60;0.20;;;;;;;;;;5037549;28;20132;-65
2023/05/31 06:51:37;;;;;;;0.10;0.10;;;;;;;;;;5047424;28;20099;-65
2023/05/31 06:54:04;;;;;;;0.82;0.30;;;;;;;;;;5031460;28;20136;-65
2023/05/31 06:56:31;;;;;;;0.22;0.20;;;;;;;;;;5043146;28;20072;-65
2023/05/31 06:58:57;;;;;;;0.20;0.20;;;;;;;;;;5043979;28;20049;-65
2023/05/31 07:01:24;;;;;;;0.20;0.20;;;;;;;;;;5051500;28;20065;-65
2023/05/31 07:03:51;;;;;;;1.00;0.20;;;;;;;;;;5051653;28;20488;-65
2023/05/31 07:06:17;;;;;;;0.57;0.20;;;;;;;;;;5051397;28;20106;-64
2023/05/31 07:08:47;;;;;;;0.25;0.20;;;;;;;;;;5051804;28;20389;-64
2023/05/31 07:11:14;;;;;;;0.10;0.10;;;;;;;;;;5048360;28;20049;-63
2023/05/31 07:13:40;;;;;;;0.52;0.10;;;;;;;;;;5034042;28;20125;-64
2023/05/31 07:16:07;;;;;;;0.30;0.10;;;;;;;;;;5041685;28;20056;-66
2023/05/31 07:18:33;;;;;;;0.10;0.10;;;;;;;;;;5042868;28;20057;-65
2023/05/31 07:21:00;;;;;;;0.35;0.35;;;;;;;;;;5031400;28;20057;-63
2023/05/31 07:23:27;;;;;;;1.17;0.30;;;;;;;;;;5037601;28;20095;-64
2023/05/31 07:25:54;;;;;;;0.20;0.20;;;;;;;;;;5047949;28;20080;-63
2023/05/31 07:28:20;;;;;;;1.17;0.35;;;;;;;;;;5037456;28;20049;-62
2023/05/31 07:30:47;;;;;;;2.90;0.50;;;;;;;;;;5029409;28;20119;-63
2023/05/31 07:33:13;;;;;;;0.63;0.30;;;;;;;;;;5050929;28;20049;-62
2023/05/31 07:35:50;;;;;;;0.45;0.30;;;;;;;;;;5050811;28;20483;-63
2023/05/31 07:38:24;;;;;;;0.90;0.20;;;;;;;;;;5050833;28;20053;-62
2023/05/31 07:40:50;;;;;;;0.98;0.20;;;;;;;;;;5047124;28;20459;-63
2023/05/31 07:43:21;;;;;;;0.20;0.20;;;;;;;;;;5050722;28;20572;-62
2023/05/31 07:45:48;;;;;;;0.88;0.40;;;;;;;;;;5050988;28;20053;-62
2023/05/31 07:48:14;;;;;;;1.00;0.30;;;;;;;;;;5050729;28;20049;-62
2023/05/31 07:50:41;;;;;;;0.43;0.28;;;;;;;;;;5050840;28;20059;-62
2023/05/31 07:53:07;;;;;;;0.75;0.30;;;;;;;;;;5050822;28;20049;-62
2023/05/31 07:55:35;;;;;;;0.82;0.30;;;;;;;;;;5050746;28;20045;-63
2023/05/31 07:58:01;;;;;;;1.45;0.45;;;;;;;;;;5050632;28;20053;-63
2023/05/31 08:00:28;;;;;;;0.63;0.43;;;;;;;;;;5050269;28;20525;-63
2023/05/31 08:02:58;;;;;;;0.45;0.43;;;;;;;;;;5050868;28;20053;-60
2023/05/31 08:05:24;;;;;;;1.40;0.40;;;;;;;;;;5050413;28;20053;-60
2023/05/31 08:07:51;;;;;;;0.80;0.50;;;;;;;;;;5050561;28;20052;-61
2023/05/31 08:10:17;;;;;;;1.65;0.70;;;;;;;;;;5048460;28;20049;-60
2023/05/31 08:12:44;;;;;;;2.47;0.60;;;;;;;;;;5050364;28;20052;-61
2023/05/31 08:15:13;;;;;;;1.00;0.50;;;;;;;;;;5044530;28;20075;-62
2023/05/31 08:17:39;;;;;;;0.50;0.50;;;;;;;;;;5038368;28;20049;-62
2023/05/31 08:20:06;;;;;;;0.80;0.40;;;;;;;;;;5040436;28;20049;-62
2023/05/31 08:22:33;;;;;;;1.17;0.40;;;;;;;;;;5050397;28;20055;-63
2023/05/31 08:24:59;;;;;;;0.47;0.40;;;;;;;;;;5050428;28;20053;-63
2023/05/31 08:27:26;;;;;;;0.40;0.40;;;;;;;;;;5050808;28;20044;-62
2023/05/31 08:29:52;;;;;;;0.88;0.60;;;;;;;;;;5050620;28;20052;-61
2023/05/31 08:32:20;;;;;;;1.50;0.43;;;;;;;;;;5053155;28;20059;-61
2023/05/31 08:34:46;;;;;;;0.43;0.38;;;;;;;;;;5043634;28;20041;-63
2023/05/31 08:37:12;;;;;;;0.38;0.38;;;;;;;;;;5054255;28;20056;-62
2023/05/31 08:39:39;;;;;;;0.50;0.38;;;;;;;;;;5053606;28;20063;-62
2023/05/31 08:42:10;;;;;;;0.70;0.30;;;;;;;;;;5053660;28;20052;-62
2023/05/31 08:44:36;;;;;;;1.45;0.40;;;;;;;;;;5050219;28;20049;-62
2023/05/31 08:47:14;;;;;;;0.55;0.52;;;;;;;;;;5042848;28;20061;-64
2023/05/31 08:49:41;;;;;;;0.63;0.30;;;;;;;;;;5053741;28;20041;-62
2023/05/31 08:52:08;;;;;;;0.50;0.30;;;;;;;;;;5053537;28;20045;-62
2023/05/31 08:54:35;;;;;;;0.57;0.30;;;;;;;;;;5053352;28;20072;-62
2023/05/31 08:57:03;;;;;;;1.90;0.30;;;;;;;;;;5038492;28;20053;-61
2023/05/31 08:59:30;;;;;;;0.30;0.22;;;;;;;;;;5041825;28;20132;-62
2023/05/31 09:01:57;;;;;;;0.50;0.20;;;;;;;;;;5052308;28;20045;-62
2023/05/31 09:04:25;;;;;;;0.40;0.30;;;;;;;;;;5053348;28;20053;-62
2023/05/31 09:06:52;;;;;;;0.70;0.20;;;;;;;;;;5053390;28;20048;-62
2023/05/31 09:09:19;;;;;;;1.70;0.30;;;;;;;;;;5043003;28;20045;-64
2023/05/31 09:11:45;;;;;;;0.20;0.20;;;;;;;;;;5049064;28;20084;-64
2023/05/31 09:14:12;;;;;;;1.75;0.52;;;;;;;;;;5041220;28;20071;-64
2023/05/31 09:16:38;;;;;;;1.02;0.40;;;;;;;;;;5051637;28;20447;-64
2023/05/31 09:19:05;;;;;;;0.45;0.22;;;;;;;;;;5053105;28;20057;-64
2023/05/31 09:21:39;;;;;;;0.28;0.28;;;;;;;;;;5053419;28;20518;-64
2023/05/31 09:24:06;;;;;;;1.60;0.40;;;;;;;;;;5053348;28;20052;-64
2023/05/31 09:26:33;;;;;;;1.10;0.30;;;;;;;;;;5053612;28;20071;-64
2023/05/31 09:29:00;;;;;;;0.82;0.40;;;;;;;;;;5053555;28;20477;-64
2023/05/31 09:31:27;;;;;;;2.28;0.40;;;;;;;;;;5053227;28;20049;-64
2023/05/31 09:33:54;;;;;;;;;;;;;;;;;;5053767;28;20122;-64
2023/05/31 09:36:25;;;;;;;0.98;0.47;;;;;;;;;;5053203;28;19920;-64
2023/05/31 09:38:57;;;;;;;0.80;0.40;;;;;;;;;;5053281;28;20049;-64
2023/05/31 09:41:23;;;;;;;0.90;0.40;;;;;;;;;;5053061;28;20053;-64
2023/05/31 09:43:50;;;;;;;0.40;0.40;;;;;;;;;;5052915;28;20519;-65
2023/05/31 09:46:17;;;;;;;1.23;0.70;;;;;;;;;;5053630;28;20444;-64
2023/05/31 09:48:45;;;;;;;0.57;0.55;;;;;;;;;;5052854;28;20049;-64
2023/05/31 09:51:12;;;;;;;0.60;0.60;;;;;;;;;;5053118;28;20044;-64
2023/05/31 09:53:43;;;;;;;0.50;0.50;;;;;;;;;;5053027;28;20412;-64
2023/05/31 09:56:10;;;;;;;1.35;0.65;;;;;;;;;;5052761;28;20049;-65
2023/05/31 09:58:37;;;;;;;0.60;0.60;;;;;;;;;;5052736;28;20056;-64
2023/05/31 10:01:03;;;;;;;0.97;0.50;;;;;;;;;;5052563;28;20052;-64
2023/05/31 10:03:31;;;;;;;1.38;0.55;;;;;;;;;;5052603;28;20084;-64
2023/05/31 10:05:57;;;;;;;;;;;;;;;;;;5052940;28;20053;-64
2023/05/31 10:08:24;;;;;;;0.93;0.80;;;;;;;;;;5052774;28;20379;-64
2023/05/31 10:10:53;;;;;;;0.98;0.70;;;;;;;;;;5052504;28;20045;-64
2023/05/31 10:13:20;;;;;;;1.02;0.82;;;;;;;;;;5052301;28;20041;-64
2023/05/31 10:15:48;;;;;;;0.95;0.95;;;;;;;;;;5051315;28;20512;-64
2023/05/31 10:18:16;;;;;;;2.17;0.90;;;;;;;;;;5052410;28;20107;-64
2023/05/31 10:20:47;;;;;;;1.17;0.80;;;;;;;;;;5052322;28;20136;-64
2023/05/31 10:23:21;;;;;;;0.82;0.82;;;;;;;;;;5052358;28;20053;-64
2023/05/31 10:25:56;;;;;;;1.38;0.60;;;;;;;;;;5052216;28;20048;-64
2023/05/31 10:28:35;;;;;;;1.27;0.65;;;;;;;;;;5052153;28;20488;-64
2023/05/31 10:31:03;;;;;;;2.92;0.75;;;;;;;;;;5050847;28;20400;-64
2023/05/31 10:33:30;;;;;;;2.05;0.80;;;;;;;;;;5052131;28;20037;-64
2023/05/31 10:35:58;;;;;;;2.67;0.77;;;;;;;;;;5052346;28;20072;-64
2023/05/31 10:38:27;;;;;;;4.43;0.85;;;;;;;;;;5052069;28;20045;-65
2023/05/31 10:40:56;;;;;;;0.60;0.60;;;;;;;;;;5051981;28;20061;-64
2023/05/31 10:43:35;;;;;;;0.90;0.70;;;;;;;;;;5051919;28;20049;-65
2023/05/31 10:46:03;;;;;;;0.50;0.50;;;;;;;;;;5052011;28;20048;-65
2023/05/31 10:48:42;;;;;;;1.27;0.63;;;;;;;;;;5052027;28;20041;-64
2023/05/31 10:51:10;;;;;;;0.93;0.50;;;;;;;;;;5051942;28;20045;-65
2023/05/31 10:53:37;;;;;;;1.38;0.70;;;;;;;;;;5051369;28;20128;-65
2023/05/31 10:56:05;;;;;;;0.60;0.60;;;;;;;;;;5052109;28;20049;-65
2023/05/31 10:58:39;;;;;;;1.55;0.88;;;;;;;;;;5051635;28;20408;-64
2023/05/31 11:01:06;;;;;;;1.52;0.75;;;;;;;;;;5051443;28;20057;-64
2023/05/31 11:03:33;;;;;;;0.73;0.73;;;;;;;;;;5051910;28;20077;-64
2023/05/31 11:06:03;;;;;;;1.45;0.70;;;;;;;;;;5051576;28;20052;-65
2023/05/31 11:08:30;;;;;;;0.95;0.70;;;;;;;;;;5037341;28;20049;-64
2023/05/31 11:11:15;;;;;;;0.65;0.60;;;;;;;;;;5035462;28;20049;-65
2023/05/31 11:13:58;;;;;;;0.98;0.88;;;;;;;;;;5050596;28;20086;-65
2023/05/31 11:16:26;;;;;;;2.45;1.45;;;;;;;;;;5051479;28;20048;-65
2023/05/31 11:19:02;;;;;;;1.40;1.13;;;;;;;;;;5051794;28;20114;-65
2023/05/31 11:21:54;;;;;;;1.10;1.00;;;;;;;;;;5051598;28;20132;-65
2023/05/31 11:24:44;;;;;;;1.92;1.30;;;;;;;;;;5051342;28;20049;-65
2023/05/31 11:27:11;;;;;;;1.63;1.10;;;;;;;;;;5051337;28;20060;-64
2023/05/31 11:29:46;;;;;;;1.02;0.93;;;;;;;;;;5051540;28;20081;-64
2023/05/31 11:32:13;;;;;;;3.00;1.13;;;;;;;;;;5051703;28;20049;-64
2023/05/31 11:34:40;;;;;;;;;;;;;;;;;;5051751;28;20048;-64
2023/05/31 11:37:06;;;;;;;1.35;1.25;;;;;;;;;;5051602;28;19920;-64
2023/05/31 11:39:33;;;;;;;1.23;1.13;;;;;;;;;;5051454;28;20049;-65
2023/05/31 11:42:02;;;;;;;2.47;1.02;;;;;;;;;;5051651;28;20376;-64
2023/05/31 11:44:30;;;;;;;1.77;1.15;;;;;;;;;;5051561;28;20049;-64
2023/05/31 11:47:03;;;;;;;1.75;1.20;;;;;;;;;;5051282;28;20128;-64
2023/05/31 11:49:30;;;;;;;2.15;1.17;;;;;;;;;;5051515;28;20045;-64
2023/05/31 11:51:57;;;;;;;1.50;1.40;;;;;;;;;;5051008;28;20064;-64
2023/05/31 11:54:26;;;;;;;1.42;1.13;;;;;;;;;;5051406;28;20059;-65
2023/05/31 11:56:55;;;;;;;1.50;1.40;;;;;;;;;;5051145;28;20049;-65
2023/05/31 11:59:22;;;;;;;1.98;1.30;;;;;;;;;;5050975;28;20053;-65
2023/05/31 12:01:48;;;;;;;1.55;1.42;;;;;;;;;;5050985;28;20559;-65
2023/05/31 12:04:15;;;;;;;2.83;1.42;;;;;;;;;;5051024;28;20053;-65
2023/05/31 12:06:42;;;;;;;1.67;1.50;;;;;;;;;;5054408;28;20060;-64
2023/05/31 12:09:09;;;;;;;1.80;1.60;;;;;;;;;;5054966;28;20055;-64
2023/05/31 12:11:35;;;;;;;1.58;1.48;;;;;;;;;;5054808;28;20047;-64
2023/05/31 12:14:02;;;;;;;2.20;2.08;;;;;;;;;;5054729;28;20041;-64
2023/05/31 12:16:28;;;;;;;2.13;1.80;;;;;;;;;;5054688;28;20488;-65
2023/05/31 12:18:55;;;;;;;1.75;1.65;;;;;;;;;;5055015;28;20449;-65
2023/05/31 12:21:23;;;;;;;2.63;2.00;;;;;;;;;;5054781;28;20094;-65
2023/05/31 12:23:50;;;;;;;2.78;1.95;;;;;;;;;;5054906;28;20049;-65
2023/05/31 12:26:17;;;;;;;;;;;;;;;;;;5054920;28;20547;-65
2023/05/31 12:28:43;;;;;;;1.92;1.77;;;;;;;;;;5054347;28;19921;-65
2023/05/31 12:31:10;;;;;;;2.30;1.52;;;;;;;;;;5054394;28;20060;-65
2023/05/31 12:33:36;;;;;;;1.73;1.63;;;;;;;;;;5054410;28;20080;-65
2023/05/31 12:36:02;;;;;;;;;;;;;;;;;;5054804;28;20049;-65
2023/05/31 12:38:29;;;;;;;2.13;1.80;;;;;;;;;;5054221;28;19925;-65
2023/05/31 12:40:56;;;;;;;2.08;1.85;;;;;;;;;;5054384;28;20049;-64
2023/05/31 12:43:23;;;;;;;2.92;1.90;;;;;;;;;;5054130;28;20053;-65
2023/05/31 12:45:52;;;;;;;3.08;2.55;;;;;;;;;;5054182;28;20102;-64
2023/05/31 12:48:22;;;;;;;3.08;2.60;;;;;;;;;;5054283;28;20049;-64
2023/05/31 12:50:48;;;;;;;3.03;2.50;;;;;;;;;;5052882;28;20095;-65
2023/05/31 12:53:15;;;;;;;3.95;2.60;;;;;;;;;;5054099;28;20045;-64
2023/05/31 12:55:42;;;;;;;2.70;2.50;;;;;;;;;;5054371;28;20498;-65
2023/05/31 12:58:10;;;;;;;3.22;2.38;;;;;;;;;;5054224;28;20076;-64
2023/05/31 13:00:37;;;;;;;3.80;2.30;;;;;;;;;;5053759;28;20412;-65
2023/05/31 13:03:03;;;;;;;5.00;2.65;;;;;;;;;;5054168;28;20053;-64
2023/05/31 13:05:30;;;;;;;2.67;2.47;;;;;;;;;;5053611;28;20490;-64
2023/05/31 13:07:57;;;;;;;3.42;2.50;;;;;;;;;;5054034;28;20049;-64
2023/05/31 13:10:23;;;;;;;4.68;2.65;;;;;;;;;;5052467;28;20458;-64
2023/05/31 13:12:50;;;;;;;2.92;2.70;;;;;;;;;;5053648;28;20056;-65
2023/05/31 13:15:17;;;;;;;3.80;2.65;;;;;;;;;;5053998;28;20071;-65
2023/05/31 13:17:44;;;;;;;2.58;2.38;;;;;;;;;;5052885;28;20493;-65
2023/05/31 13:20:11;;;;;;;5.40;2.70;;;;;;;;;;5053590;28;20079;-65
2023/05/31 13:22:39;;;;;;;3.05;2.75;;;;;;;;;;5053424;28;20045;-65
2023/05/31 13:25:06;;;;;;;2.65;2.42;;;;;;;;;;5053414;28;20516;-65
2023/05/31 13:27:33;;;;;;;2.30;2.17;;;;;;;;;;5053616;28;20143;-65
2023/05/31 13:29:59;;;;;;;2.17;1.98;;;;;;;;;;5053188;28;20052;-65
2023/05/31 13:32:26;;;;;;;2.35;1.73;;;;;;;;;;5053618;28;20087;-65
2023/05/31 13:34:52;;;;;;;2.20;2.00;;;;;;;;;;5053449;28;20041;-65
2023/05/31 13:37:23;;;;;;;4.45;1.63;;;;;;;;;;5053329;28;20548;-65
2023/05/31 13:39:50;;;;;;;;;;;;;;;;;;5053482;28;20068;-65
2023/05/31 13:42:16;;;;;;;3.45;1.80;;;;;;;;;;5053384;28;19990;-65
2023/05/31 13:44:43;;;;;;;2.75;2.45;;;;;;;;;;5053227;28;20060;-65
2023/05/31 13:47:09;;;;;;;;;;;;;;;;;;5053824;28;20053;-65
2023/05/31 13:49:36;;;;;;;3.22;2.97;;;;;;;;;;5052964;28;19928;-65
2023/05/31 13:52:04;;;;;;;6.03;5.43;;;;;;;;;;5053169;28;20374;-65
2023/05/31 13:54:31;;;;;;;11.25;10.45;;;;;;;;;;5052877;28;20098;-65
2023/05/31 13:56:59;;;;;;;16.52;15.32;;;;;;;;;;5053082;28;20045;-65
2023/05/31 13:59:25;;;;;;;11.15;10.25;;;;;;;;;;5052800;28;20045;-65
2023/05/31 14:01:52;;;;;;;;;;;;;;;;;;5053106;28;20524;-65
2023/05/31 14:04:18;;;;;;;8.88;8.07;;;;;;;;;;5052664;28;19931;-65
2023/05/31 14:06:48;;;;;;;3.10;2.80;;;;;;;;;;5052486;28;20122;-65
2023/05/31 14:09:16;;;;;;;2.55;2.20;;;;;;;;;;5052393;28;20053;-65
2023/05/31 14:11:43;;;;;;;2.85;2.03;;;;;;;;;;5052518;28;20052;-65
2023/05/31 14:14:10;;;;;;;2.42;2.03;;;;;;;;;;5052621;28;20047;-65
2023/05/31 14:16:36;;;;;;;2.42;2.10;;;;;;;;;;5052513;28;20051;-65
2023/05/31 14:19:03;;;;;;;11.63;10.45;;;;;;;;;;5052428;28;20048;-65
2023/05/31 14:21:31;;;;;;;7.30;6.35;;;;;;;;;;5052581;28;20080;-65
2023/05/31 14:23:58;;;;;;;5.25;3.08;;;;;;;;;;5052563;28;20052;-65
2023/05/31 14:26:26;;;;;;;2.55;2.08;;;;;;;;;;5052530;28;20055;-65
2023/05/31 14:28:53;;;;;;;4.85;2.65;;;;;;;;;;5051526;28;20107;-65
2023/05/31 14:31:19;;;;;;;3.42;2.40;;;;;;;;;;5052178;28;20049;-66
2023/05/31 14:33:46;;;;;;;4.30;2.83;;;;;;;;;;5052113;28;20077;-65
2023/05/31 14:36:13;;;;;;;4.53;3.60;;;;;;;;;;5052073;28;20132;-65
2023/05/31 14:38:40;;;;;;;3.65;3.20;;;;;;;;;;5052307;28;20049;-66
2023/05/31 14:41:06;;;;;;;4.70;3.65;;;;;;;;;;5052056;28;20500;-66
2023/05/31 14:43:33;;;;;;;2.40;1.95;;;;;;;;;;5052093;28;20053;-65
2023/05/31 14:45:59;;;;;;;3.65;2.17;;;;;;;;;;5052274;28;20071;-65
2023/05/31 14:48:26;;;;;;;3.00;1.73;;;;;;;;;;5052171;28;20546;-65